createdAt,value
2023-05-14T00:00:43.326Z,101801.97
2023-05-14T00:03:12.705Z,101811.28
2023-05-14T00:05:42.180Z,101808.41
2023-05-14T00:08:11.236Z,101812.31
2023-05-14T00:10:39.480Z,101804.09
2023-05-14T00:13:08.698Z,101802.66
2023-05-14T00:15:37.981Z,101801.19
2023-05-14T00:18:07.472Z,101794.41
2023-05-14T00:20:36.733Z,101797.09
2023-05-14T00:23:05.225Z,101796.38
2023-05-14T00:25:33.129Z,101792.94
2023-05-14T00:28:01.336Z,101791.50
2023-05-14T00:30:29.693Z,101784.72
2023-05-14T00:32:58.989Z,101784.72
2023-05-14T00:35:28.443Z,101775.22
2023-05-14T00:37:57.455Z,101781.81
2023-05-14T00:40:26.391Z,101760.31
2023-05-14T00:42:54.915Z,101761.78
2023-05-14T00:45:23.765Z,101758.91
2023-05-14T00:47:52.120Z,101762.84
2023-05-14T00:50:21.222Z,101755.28
2023-05-14T00:52:50.186Z,101756.03
2023-05-14T00:55:18.774Z,101753.84
2023-05-14T00:57:47.093Z,101758.53
2023-05-14T01:00:16.471Z,101762.44
2023-05-14T01:02:45.048Z,101767.81
2023-05-14T01:05:13.951Z,101766.38
2023-05-14T01:07:42.428Z,101763.69
2023-05-14T01:10:10.890Z,101761.72
2023-05-14T01:12:39.864Z,101760.78
2023-05-14T01:15:08.141Z,101758.09
2023-05-14T01:17:37.510Z,101755.44
2023-05-14T01:20:06.321Z,101751.31
2023-05-14T01:22:35.189Z,101749.84
2023-05-14T01:25:04.449Z,101748.44
2023-05-14T01:27:33.792Z,101748.44
2023-05-14T01:30:03.316Z,101750.91
2023-05-14T01:32:31.839Z,101746.28
2023-05-14T01:35:00.773Z,101738.72
2023-05-14T01:37:30.151Z,101748.78
2023-05-14T01:39:58.837Z,101741.22
2023-05-14T01:42:27.450Z,101738.53
2023-05-14T01:44:56.398Z,101742.69
2023-05-14T01:47:25.438Z,101743.91
2023-05-14T01:49:53.826Z,101740.50
2023-05-14T01:52:22.773Z,101748.56
2023-05-14T01:54:51.678Z,101748.38
2023-05-14T01:57:21.012Z,101746.19
2023-05-14T01:59:49.369Z,101740.81
2023-05-14T02:02:18.145Z,101735.44
2023-05-14T02:04:46.919Z,101734.75
2023-05-14T02:07:15.422Z,101734.00
2023-05-14T02:09:44.408Z,101731.16
2023-05-14T02:12:13.362Z,101731.16
2023-05-14T02:14:42.776Z,101732.59
2023-05-14T02:17:12.170Z,101733.66
2023-05-14T02:19:41.058Z,101728.28
2023-05-14T02:22:10.012Z,101724.13
2023-05-14T02:24:39.111Z,101711.44
2023-05-14T02:27:07.919Z,101720.03
2023-05-14T02:29:35.481Z,101718.56
2023-05-14T02:32:03.711Z,101713.19
2023-05-14T02:34:32.024Z,101705.69
2023-05-14T02:37:01.209Z,101715.69
2023-05-14T02:39:30.157Z,101714.25
2023-05-14T02:41:59.538Z,101704.78
2023-05-14T02:44:27.909Z,101714.25
2023-05-14T02:46:57.275Z,101707.47
2023-05-14T02:49:25.739Z,101706.03
2023-05-14T02:51:54.641Z,101704.56
2023-05-14T02:54:23.638Z,101713.88
2023-05-14T02:56:52.613Z,101716.56
2023-05-14T02:59:21.096Z,101717.06
2023-05-14T03:01:50.045Z,101712.44
2023-05-14T03:04:19.357Z,101711.00
2023-05-14T03:06:48.307Z,101716.38
2023-05-14T03:09:17.351Z,101716.19
2023-05-14T03:11:46.152Z,101707.41
2023-05-14T03:14:15.365Z,101695.94
2023-05-14T03:16:44.200Z,101705.22
2023-05-14T03:19:12.905Z,101701.09
2023-05-14T03:21:41.371Z,101697.69
2023-05-14T03:24:09.779Z,101698.22
2023-05-14T03:26:38.985Z,101697.50
2023-05-14T03:29:08.986Z,101698.22
2023-05-14T03:31:37.901Z,101696.06
2023-05-14T03:34:06.943Z,101687.31
2023-05-14T03:36:36.367Z,101688.53
2023-05-14T03:39:05.368Z,101687.31
2023-05-14T03:41:34.063Z,101685.84
2023-05-14T03:44:02.728Z,101684.41
2023-05-14T03:46:31.509Z,101693.19
2023-05-14T03:49:00.919Z,101689.78
2023-05-14T03:51:29.758Z,101689.78
2023-05-14T03:53:59.086Z,101688.31
2023-05-14T03:56:28.620Z,101688.31
2023-05-14T03:58:56.976Z,101682.94
2023-05-14T04:01:25.389Z,101682.94
2023-05-14T04:03:54.528Z,101682.94
2023-05-14T04:06:23.542Z,101682.94
2023-05-14T04:08:52.837Z,101681.53
2023-05-14T04:11:21.705Z,101676.19
2023-05-14T04:13:50.543Z,101684.22
2023-05-14T04:16:19.430Z,101681.53
2023-05-14T04:18:47.772Z,101684.41
2023-05-14T04:21:16.637Z,101682.94
2023-05-14T04:23:46.006Z,101684.41
2023-05-14T04:26:15.264Z,101685.13
2023-05-14T04:28:44.601Z,101688.53
2023-05-14T04:31:13.831Z,101692.66
2023-05-14T04:33:42.968Z,101682.63
2023-05-14T04:36:11.835Z,101679.44
2023-05-14T04:38:41.118Z,101680.88
2023-05-14T04:41:10.360Z,101672.31
2023-05-14T04:43:39.656Z,101681.09
2023-05-14T04:46:08.519Z,101670.56
2023-05-14T04:48:37.776Z,101673.91
2023-05-14T04:51:07.244Z,101677.34
2023-05-14T04:53:36.775Z,101674.84
2023-05-14T04:56:05.303Z,101670.94
2023-05-14T04:58:35.086Z,101668.94
2023-05-14T05:01:03.736Z,101677.72
2023-05-14T05:03:32.396Z,101675.25
2023-05-14T05:06:01.222Z,101669.88
2023-05-14T05:08:30.137Z,101678.13
2023-05-14T05:10:58.978Z,101678.13
2023-05-14T05:13:28.254Z,101682.44
2023-05-14T05:15:57.595Z,101679.75
2023-05-14T05:18:26.300Z,101679.41
2023-05-14T05:20:55.205Z,101688.38
2023-05-14T05:23:24.650Z,101695.41
2023-05-14T05:25:53.186Z,101690.22
2023-05-14T05:28:21.353Z,101694.53
2023-05-14T05:30:50.737Z,101698.84
2023-05-14T05:33:19.252Z,101705.84
2023-05-14T05:35:47.933Z,101692.63
2023-05-14T05:38:16.745Z,101699.81
2023-05-14T05:40:46.043Z,101704.16
2023-05-14T05:43:14.818Z,101707.00
2023-05-14T05:45:44.255Z,101697.91
2023-05-14T05:48:12.789Z,101707.78
2023-05-14T05:50:41.537Z,101697.44
2023-05-14T05:53:10.340Z,101697.78
2023-05-14T05:55:39.696Z,101703.53
2023-05-14T05:58:08.995Z,101707.88
2023-05-14T06:00:37.554Z,101707.88
2023-05-14T06:03:05.936Z,101706.63
2023-05-14T06:05:33.974Z,101705.38
2023-05-14T06:08:02.150Z,101705.38
2023-05-14T06:10:31.539Z,101704.13
2023-05-14T06:13:00.835Z,101702.88
2023-05-14T06:15:30.227Z,101709.88
2023-05-14T06:17:59.654Z,101705.94
2023-05-14T06:20:28.308Z,101702.22
2023-05-14T06:22:56.598Z,101705.09
2023-05-14T06:25:24.812Z,101713.34
2023-05-14T06:27:54.014Z,101720.50
2023-05-14T06:30:23.546Z,101726.25
2023-05-14T06:32:52.467Z,101714.47
2023-05-14T06:35:20.564Z,101720.22
2023-05-14T06:37:49.904Z,101722.03
2023-05-14T06:40:19.169Z,101716.81
2023-05-14T06:42:48.386Z,101718.66
2023-05-14T06:45:17.785Z,101716.31
2023-05-14T06:47:47.138Z,101710.59
2023-05-14T06:50:16.319Z,101713.16
2023-05-14T06:52:45.600Z,101709.56
2023-05-14T06:55:14.403Z,101717.50
2023-05-14T06:57:43.248Z,101714.09
2023-05-14T07:00:12.104Z,101715.38
2023-05-14T07:02:40.688Z,101707.84
2023-05-14T07:05:09.280Z,101705.53
2023-05-14T07:07:38.154Z,101699.25
2023-05-14T07:10:06.979Z,101711.13
2023-05-14T07:12:36.054Z,101706.78
2023-05-14T07:15:04.268Z,101698.91
2023-05-14T07:17:33.120Z,101701.75
2023-05-14T07:20:01.677Z,101703.41
2023-05-14T07:22:31.666Z,101698.38
2023-05-14T07:25:03.059Z,101696.03
2023-05-14T07:27:32.949Z,101696.41
2023-05-14T07:30:02.205Z,101694.06
2023-05-14T07:32:31.092Z,101695.88
2023-05-14T07:34:59.911Z,101692.63
2023-05-14T07:37:29.536Z,101697.84
2023-05-14T07:39:58.876Z,101688.84
2023-05-14T07:42:35.907Z,101689.75
2023-05-14T07:45:06.124Z,101694.97
2023-05-14T07:47:35.070Z,101685.97
2023-05-14T07:50:04.572Z,101693.84
2023-05-14T07:52:33.406Z,101686.78
2023-05-14T07:55:02.703Z,101681.41
2023-05-14T07:57:32.016Z,101683.72
2023-05-14T08:00:01.330Z,101682.94
2023-05-14T08:02:40.449Z,101681.25
2023-05-14T08:05:09.883Z,101686.41
2023-05-14T08:07:38.474Z,101675.94
2023-05-14T08:10:06.594Z,101685.03
2023-05-14T08:12:35.520Z,101683.34
2023-05-14T08:15:03.684Z,101682.00
2023-05-14T08:17:32.455Z,101676.72
2023-05-14T08:20:02.755Z,101693.41
2023-05-14T08:22:32.964Z,101687.97
2023-05-14T08:25:01.689Z,101684.06
2023-05-14T08:27:30.496Z,101674.09
2023-05-14T08:29:59.270Z,101682.78
2023-05-14T08:32:28.072Z,101681.25
2023-05-14T08:34:57.394Z,101691.00
2023-05-14T08:37:26.836Z,101680.88
2023-05-14T08:39:55.800Z,101679.88
2023-05-14T08:42:25.104Z,101682.25
2023-05-14T08:44:54.468Z,101680.22
2023-05-14T08:47:23.758Z,101678.13
2023-05-14T08:49:52.220Z,101677.78
2023-05-14T08:52:20.991Z,101666.56
2023-05-14T08:54:49.807Z,101668.25
2023-05-14T08:57:18.680Z,101672.50
2023-05-14T08:59:47.900Z,101672.44
2023-05-14T09:02:17.292Z,101669.22
2023-05-14T09:04:46.746Z,101673.56
2023-05-14T09:07:15.446Z,101672.16
2023-05-14T09:09:43.741Z,101670.78
2023-05-14T09:12:13.049Z,101673.59
2023-05-14T09:14:42.303Z,101669.41
2023-05-14T09:17:11.606Z,101665.13
2023-05-14T09:19:41.033Z,101668.25
2023-05-14T09:22:09.987Z,101658.72
2023-05-14T09:24:39.268Z,101648.09
2023-05-14T09:27:08.590Z,101654.38
2023-05-14T09:29:38.206Z,101652.00
2023-05-14T09:32:07.060Z,101648.59
2023-05-14T09:34:35.791Z,101646.59
2023-05-14T09:37:04.691Z,101648.59
2023-05-14T09:39:33.990Z,101645.88
2023-05-14T09:42:03.051Z,101640.50
2023-05-14T09:44:31.679Z,101641.06
2023-05-14T09:47:00.669Z,101624.66
2023-05-14T09:49:29.389Z,101630.78
2023-05-14T09:51:58.708Z,101633.75
2023-05-14T09:54:27.973Z,101630.31
2023-05-14T09:56:56.777Z,101637.94
2023-05-14T09:59:25.764Z,101633.28
2023-05-14T10:01:55.073Z,101633.31
2023-05-14T10:04:24.486Z,101627.66
2023-05-14T10:06:53.831Z,101629.66
2023-05-14T10:09:22.641Z,101621.97
2023-05-14T10:11:51.498Z,101630.72
2023-05-14T10:14:20.798Z,101627.69
2023-05-14T10:16:50.265Z,101627.56
2023-05-14T10:19:19.459Z,101621.22
2023-05-14T10:21:49.007Z,101619.69
2023-05-14T10:24:18.087Z,101628.59
2023-05-14T10:26:46.878Z,101608.56
2023-05-14T10:29:16.178Z,101613.78
2023-05-14T10:31:45.474Z,101610.19
2023-05-14T10:34:14.788Z,101606.41
2023-05-14T10:36:43.650Z,101597.31
2023-05-14T10:39:12.900Z,101607.34
2023-05-14T10:41:42.209Z,101598.09
2023-05-14T10:44:11.052Z,101594.41
2023-05-14T10:46:39.979Z,101599.66
2023-05-14T10:49:08.871Z,101590.44
2023-05-14T10:51:37.995Z,101596.84
2023-05-14T10:54:06.348Z,101586.13
2023-05-14T10:56:35.645Z,101586.91
2023-05-14T10:59:05.065Z,101578.22
2023-05-14T11:01:34.569Z,101586.22
2023-05-14T11:04:04.009Z,101591.38
2023-05-14T11:06:33.360Z,101566.31
2023-05-14T11:09:01.958Z,101572.03
2023-05-14T11:11:30.639Z,101574.31
2023-05-14T11:13:59.871Z,101567.13
2023-05-14T11:16:29.136Z,101576.16
2023-05-14T11:18:58.550Z,101566.59
2023-05-14T11:21:27.611Z,101562.41
2023-05-14T11:23:56.980Z,101569.25
2023-05-14T11:26:26.324Z,101561.75
2023-05-14T11:28:55.669Z,101561.25
2023-05-14T11:31:24.546Z,101553.91
2023-05-14T11:33:53.687Z,101555.56
2023-05-14T11:36:22.397Z,101550.50
2023-05-14T11:38:51.156Z,101546.91
2023-05-14T11:41:20.472Z,101554.53
2023-05-14T11:43:49.936Z,101541.50
2023-05-14T11:46:19.294Z,101547.53
2023-05-14T11:48:47.920Z,101540.75
2023-05-14T11:51:16.166Z,101548.66
2023-05-14T11:53:45.625Z,101539.69
2023-05-14T11:56:14.949Z,101538.41
2023-05-14T11:58:44.314Z,101537.22
2023-05-14T12:01:13.430Z,101538.81
2023-05-14T12:03:42.349Z,101531.38
2023-05-14T12:06:11.823Z,101531.97
2023-05-14T12:08:40.694Z,101525.31
2023-05-14T12:11:09.776Z,101529.47
2023-05-14T12:13:38.680Z,101533.03
2023-05-14T12:16:07.472Z,101521.38
2023-05-14T12:18:37.109Z,101520.09
2023-05-14T12:21:06.097Z,101519.53
2023-05-14T12:23:36.495Z,101516.00
2023-05-14T12:26:07.745Z,101512.75
2023-05-14T12:28:38.888Z,101508.41
2023-05-14T12:31:10.217Z,101515.91
2023-05-14T12:33:41.448Z,101508.00
2023-05-14T12:38:53.397Z,101507.94
2023-05-14T12:41:22.874Z,101515.38
2023-05-14T12:43:50.689Z,101508.34
2023-05-14T12:46:20.607Z,101502.25
2023-05-14T12:48:53.156Z,101511.28
2023-05-14T12:51:22.270Z,101501.50
2023-05-14T12:53:50.802Z,101499.72
2023-05-14T12:56:20.614Z,101495.84
2023-05-14T12:58:51.927Z,101497.78
2023-05-14T13:01:21.491Z,101496.66
2023-05-14T13:03:49.688Z,101498.97
2023-05-14T13:06:18.823Z,101487.19
2023-05-14T13:08:48.185Z,101493.56
2023-05-14T13:11:17.659Z,101491.00
2023-05-14T13:13:47.044Z,101483.84
2023-05-14T13:16:16.051Z,101489.22
2023-05-14T13:18:44.763Z,101492.06
2023-05-14T13:21:13.887Z,101486.25
2023-05-14T13:23:42.190Z,101484.72
2023-05-14T13:26:11.150Z,101486.50
2023-05-14T13:28:39.985Z,101482.09
2023-05-14T13:31:09.631Z,101480.78
2023-05-14T13:33:38.604Z,101477.97
2023-05-14T13:36:07.983Z,101480.97
2023-05-14T13:38:36.947Z,101465.34
2023-05-14T13:41:05.555Z,101473.22
2023-05-14T13:43:34.383Z,101466.59
2023-05-14T13:46:03.234Z,101463.50
2023-05-14T13:48:32.632Z,101464.38
2023-05-14T13:51:01.758Z,101459.53
2023-05-14T13:53:29.954Z,101452.81
2023-05-14T13:55:58.832Z,101454.38
2023-05-14T13:58:27.617Z,101458.28
2023-05-14T14:00:56.905Z,101454.44
2023-05-14T14:03:26.357Z,101458.44
2023-05-14T14:05:55.611Z,101450.88
2023-05-14T14:08:24.927Z,101453.91
2023-05-14T14:10:54.351Z,101440.97
2023-05-14T14:13:23.271Z,101437.59
2023-05-14T14:15:52.796Z,101434.06
2023-05-14T14:18:21.680Z,101445.75
2023-05-14T14:20:50.886Z,101444.09
2023-05-14T14:23:19.736Z,101440.22
2023-05-14T14:25:49.044Z,101437.56
2023-05-14T14:28:18.233Z,101427.31
2023-05-14T14:30:47.488Z,101430.03
2023-05-14T14:33:16.850Z,101425.03
2023-05-14T14:35:45.603Z,101435.16
2023-05-14T14:38:14.924Z,101428.19
2023-05-14T14:40:44.260Z,101429.47
2023-05-14T14:43:13.456Z,101441.50
2023-05-14T14:45:42.659Z,101427.56
2023-05-14T14:48:11.932Z,101435.09
2023-05-14T14:50:40.764Z,101427.81
2023-05-14T14:53:09.954Z,101425.53
2023-05-14T14:55:39.211Z,101421.53
2023-05-14T14:58:08.660Z,101424.97
2023-05-14T15:00:37.915Z,101423.84
2023-05-14T15:03:07.331Z,101427.41
2023-05-14T15:05:36.302Z,101419.56
2023-05-14T15:08:05.687Z,101424.38
2023-05-14T15:10:34.980Z,101428.16
2023-05-14T15:13:04.065Z,101420.41
2023-05-14T15:15:32.749Z,101414.56
2023-05-14T15:18:02.125Z,101414.91
2023-05-14T15:20:31.240Z,101414.13
2023-05-14T15:22:59.144Z,101421.44
2023-05-14T15:25:27.549Z,101417.28
2023-05-14T15:27:55.661Z,101410.53
2023-05-14T15:30:24.586Z,101412.78
2023-05-14T15:32:53.898Z,101405.50
2023-05-14T15:35:23.099Z,101407.00
2023-05-14T15:37:52.028Z,101413.34
2023-05-14T15:40:21.299Z,101401.50
2023-05-14T15:42:50.719Z,101399.06
2023-05-14T15:45:20.253Z,101390.09
2023-05-14T15:47:49.226Z,101398.00
2023-05-14T15:50:18.565Z,101388.19
2023-05-14T15:52:47.832Z,101386.59
2023-05-14T15:55:17.021Z,101398.50
2023-05-14T15:57:46.499Z,101392.94
2023-05-14T16:00:15.877Z,101389.53
2023-05-14T16:02:44.854Z,101394.75
2023-05-14T16:05:14.324Z,101393.88
2023-05-14T16:07:43.314Z,101392.47
2023-05-14T16:10:12.693Z,101401.81
2023-05-14T16:12:42.235Z,101398.78
2023-05-14T16:15:11.196Z,101397.19
2023-05-14T16:17:40.064Z,101402.25
2023-05-14T16:20:08.829Z,101396.53
2023-05-14T16:22:38.090Z,101397.66
2023-05-14T16:25:07.117Z,101401.28
2023-05-14T16:27:36.568Z,101400.94
2023-05-14T16:30:05.520Z,101401.91
2023-05-14T16:32:34.170Z,101407.13
2023-05-14T16:35:03.591Z,101402.09
2023-05-14T16:37:32.486Z,101407.91
2023-05-14T16:40:01.950Z,101413.09
2023-05-14T16:42:30.713Z,101406.28
2023-05-14T16:44:59.424Z,101401.31
2023-05-14T16:47:28.548Z,101405.78
2023-05-14T16:49:57.244Z,101400.25
2023-05-14T16:52:26.159Z,101405.47
2023-05-14T16:54:55.437Z,101407.97
2023-05-14T16:57:24.612Z,101399.75
2023-05-14T16:59:54.539Z,101400.84
2023-05-14T17:02:23.726Z,101400.13
2023-05-14T17:04:52.575Z,101408.75
2023-05-14T17:07:22.099Z,101408.59
2023-05-14T17:09:51.405Z,101409.16
2023-05-14T17:12:20.645Z,101405.56
2023-05-14T17:14:50.201Z,101404.16
2023-05-14T17:17:19.863Z,101402.72
2023-05-14T17:19:49.284Z,101402.00
2023-05-14T17:22:18.654Z,101412.03
2023-05-14T17:24:47.970Z,101408.09
2023-05-14T17:27:16.906Z,101408.09
2023-05-14T17:29:46.140Z,101405.56
2023-05-14T17:32:14.994Z,101412.38
2023-05-14T17:34:43.995Z,101418.50
2023-05-14T17:37:12.692Z,101408.44
2023-05-14T17:39:42.192Z,101415.22
2023-05-14T17:42:11.718Z,101411.28
2023-05-14T17:44:41.000Z,101412.72
2023-05-14T17:47:10.281Z,101412.72
2023-05-14T17:49:39.084Z,101422.06
2023-05-14T17:52:07.598Z,101416.69
2023-05-14T17:54:35.880Z,101427.44
2023-05-14T17:57:05.240Z,101431.38
2023-05-14T17:59:34.040Z,101435.38
2023-05-14T18:02:02.910Z,101439.31
2023-05-14T18:04:31.763Z,101441.09
2023-05-14T18:07:00.698Z,101433.56
2023-05-14T18:09:29.303Z,101436.84
2023-05-14T18:11:59.232Z,101437.91
2023-05-14T18:14:28.701Z,101438.47
2023-05-14T18:16:56.964Z,101437.00
2023-05-14T18:19:26.751Z,101444.22
2023-05-14T18:21:55.091Z,101440.66
2023-05-14T18:24:23.700Z,101442.63
2023-05-14T18:26:53.078Z,101439.03
2023-05-14T18:29:22.444Z,101437.63
2023-05-14T18:31:51.762Z,101437.28
2023-05-14T18:34:20.928Z,101441.22
2023-05-14T18:36:50.081Z,101442.34
2023-05-14T18:39:19.160Z,101443.56
2023-05-14T18:41:47.476Z,101448.06
2023-05-14T18:44:16.208Z,101448.59
2023-05-14T18:46:45.515Z,101445.56
2023-05-14T18:49:14.870Z,101461.56
2023-05-14T18:51:43.710Z,101465.34
2023-05-14T18:54:12.480Z,101462.44
2023-05-14T18:56:41.727Z,101464.97
2023-05-14T18:59:11.040Z,101462.13
2023-05-14T19:01:40.471Z,101464.63
2023-05-14T19:04:09.997Z,101454.22
2023-05-14T19:06:39.336Z,101462.88
2023-05-14T19:09:07.861Z,101458.56
2023-05-14T19:11:36.465Z,101461.06
2023-05-14T19:14:05.883Z,101460.16
2023-05-14T19:16:35.251Z,101460.72
2023-05-14T19:19:04.321Z,101467.88
2023-05-14T19:21:33.669Z,101458.94
2023-05-14T19:24:02.844Z,101466.84
2023-05-14T19:26:31.767Z,101463.25
2023-05-14T19:29:00.380Z,101465.03
2023-05-14T19:31:29.611Z,101467.56
2023-05-14T19:33:58.991Z,101470.06
2023-05-14T19:36:27.659Z,101472.59
2023-05-14T19:38:56.494Z,101463.63
2023-05-14T19:41:25.888Z,101472.25
2023-05-14T19:43:55.108Z,101469.38
2023-05-14T19:46:24.458Z,101470.44
2023-05-14T19:48:53.720Z,101469.56
2023-05-14T19:51:22.551Z,101470.09
2023-05-14T19:53:51.486Z,101470.63
2023-05-14T19:56:20.701Z,101475.09
2023-05-14T19:58:53.609Z,101463.63
2023-05-14T20:01:23.023Z,101466.16
2023-05-14T20:03:51.900Z,101465.44
2023-05-14T20:06:20.892Z,101474.56
2023-05-14T20:08:49.027Z,101462.41
2023-05-14T20:11:17.868Z,101464.34
2023-05-14T20:13:46.634Z,101474.38
2023-05-14T20:16:15.420Z,101466.88
2023-05-14T20:18:44.756Z,101457.91
2023-05-14T20:21:14.158Z,101468.66
2023-05-14T20:23:43.515Z,101464.56
2023-05-14T20:26:12.287Z,101465.78
2023-05-14T20:28:41.653Z,101460.25
2023-05-14T20:31:10.983Z,101450.72
2023-05-14T20:33:40.193Z,101449.31
2023-05-14T20:36:09.095Z,101458.63
2023-05-14T20:38:38.551Z,101459.88
2023-05-14T20:41:07.866Z,101465.78
2023-05-14T20:43:37.018Z,101459.72
2023-05-14T20:46:06.280Z,101458.25
2023-05-14T20:48:35.169Z,101458.25
2023-05-14T20:51:04.545Z,101452.19
2023-05-14T20:53:33.863Z,101451.47
2023-05-14T20:56:03.191Z,101450.72
2023-05-14T20:58:32.054Z,101449.34
2023-05-14T21:01:01.256Z,101445.91
2023-05-14T21:03:30.581Z,101445.19
2023-05-14T21:05:59.950Z,101447.16
2023-05-14T21:08:29.591Z,101441.78
2023-05-14T21:10:59.344Z,101445.72
2023-05-14T21:13:28.681Z,101438.38
2023-05-14T21:15:57.877Z,101433.53
2023-05-14T21:18:26.969Z,101426.75
2023-05-14T21:20:55.818Z,101429.44
2023-05-14T21:23:25.094Z,101430.66
2023-05-14T21:25:53.893Z,101440.72
2023-05-14T21:28:23.104Z,101427.81
2023-05-14T21:30:51.621Z,101427.81
2023-05-14T21:33:20.348Z,101415.63
2023-05-14T21:35:49.154Z,101419.56
2023-05-14T21:38:18.545Z,101421.53
2023-05-14T21:40:47.770Z,101419.38
2023-05-14T21:43:17.082Z,101414.00
2023-05-14T21:45:46.485Z,101412.59
2023-05-14T21:48:15.978Z,101409.91
2023-05-14T21:50:45.343Z,101411.16
2023-05-14T21:53:14.561Z,101405.59
2023-05-14T21:55:43.888Z,101412.41
2023-05-14T21:58:13.203Z,101412.41
2023-05-14T22:00:42.431Z,101414.94
2023-05-14T22:03:11.332Z,101422.25
2023-05-14T22:05:40.702Z,101421.53
2023-05-14T22:08:09.469Z,101410.59
2023-05-14T22:10:37.976Z,101411.88
2023-05-14T22:13:10.407Z,101406.50
2023-05-14T22:15:39.223Z,101405.06
2023-05-14T22:18:08.681Z,101405.06
2023-05-14T22:20:37.504Z,101400.94
2023-05-14T22:23:06.414Z,101388.78
2023-05-14T22:25:35.081Z,101398.09
2023-05-14T22:28:03.777Z,101395.22
2023-05-14T22:30:32.458Z,101404.69
2023-05-14T22:33:01.313Z,101408.44
2023-05-14T22:35:30.637Z,101417.97
2023-05-14T22:37:59.401Z,101411.13
2023-05-14T22:40:28.122Z,101395.00
2023-05-14T22:42:57.430Z,101388.78
2023-05-14T22:45:26.741Z,101394.66
2023-05-14T22:47:56.396Z,101385.34
2023-05-14T22:50:25.857Z,101381.94
2023-05-14T22:52:55.329Z,101389.28
2023-05-14T22:55:24.723Z,101380.50
2023-05-14T22:57:53.582Z,101383.72
2023-05-14T23:00:22.484Z,101381.03
2023-05-14T23:02:51.871Z,101389.09
2023-05-14T23:05:21.082Z,101382.31
2023-05-14T23:07:49.846Z,101376.94
2023-05-14T23:10:19.281Z,101371.56
2023-05-14T23:12:48.671Z,101376.94
2023-05-14T23:15:17.885Z,101366.19
2023-05-14T23:17:47.141Z,101363.34
2023-05-14T23:20:16.174Z,101363.34
2023-05-14T23:22:45.445Z,101368.72
2023-05-14T23:25:13.978Z,101374.06
2023-05-14T23:27:42.604Z,101375.31
2023-05-14T23:30:11.138Z,101371.19
2023-05-14T23:32:39.248Z,101360.47
2023-05-14T23:35:08.608Z,101366.56
2023-05-14T23:37:38.010Z,101361.72
2023-05-14T23:40:07.338Z,101360.28
2023-05-14T23:42:36.197Z,101354.91
2023-05-14T23:45:05.009Z,101349.34
2023-05-14T23:47:34.329Z,101349.34
2023-05-14T23:50:03.628Z,101347.94
2023-05-14T23:52:32.587Z,101357.41
2023-05-14T23:55:01.185Z,101346.50
2023-05-14T23:57:29.794Z,101341.13
2023-05-14T23:59:59.078Z,101330.38
